sensor_id;sensor_type;location;lat;lon;timestamp;P1;durP1;ratioP1;P2;durP2;ratioP2
55150;SDS011;41041;43.162;20.538;2023-04-25T00:01:50;10.60;;;6.10;;
55150;SDS011;41041;43.162;20.538;2023-04-25T00:04:16;10.23;;;6.03;;
55150;SDS011;41041;43.162;20.538;2023-04-25T00:06:42;10.38;;;5.68;;
55150;SDS011;41041;43.162;20.538;2023-04-25T00:09:08;9.55;;;5.82;;
55150;SDS011;41041;43.162;20.538;2023-04-25T00:11:35;13.10;;;6.18;;
55150;SDS011;41041;43.162;20.538;2023-04-25T00:14:02;10.60;;;5.82;;
55150;SDS011;41041;43.162;20.538;2023-04-25T00:16:29;9.10;;;6.40;;
55150;SDS011;41041;43.162;20.538;2023-04-25T00:18:58;9.07;;;5.43;;
55150;SDS011;41041;43.162;20.538;2023-04-25T00:21:24;10.68;;;4.93;;
55150;SDS011;41041;43.162;20.538;2023-04-25T00:23:52;8.43;;;4.20;;
55150;SDS011;41041;43.162;20.538;2023-04-25T00:26:18;8.35;;;4.60;;
55150;SDS011;41041;43.162;20.538;2023-04-25T00:28:46;7.28;;;4.53;;
55150;SDS011;41041;43.162;20.538;2023-04-25T00:31:12;10.05;;;6.18;;
55150;SDS011;41041;43.162;20.538;2023-04-25T00:33:38;12.45;;;7.03;;
55150;SDS011;41041;43.162;20.538;2023-04-25T00:36:05;9.65;;;6.15;;
55150;SDS011;41041;43.162;20.538;2023-04-25T00:38:31;12.15;;;6.78;;
55150;SDS011;41041;43.162;20.538;2023-04-25T00:40:57;8.27;;;5.80;;
55150;SDS011;41041;43.162;20.538;2023-04-25T00:43:25;10.80;;;5.65;;
55150;SDS011;41041;43.162;20.538;2023-04-25T00:45:51;10.43;;;6.75;;
55150;SDS011;41041;43.162;20.538;2023-04-25T00:48:18;10.10;;;5.55;;
55150;SDS011;41041;43.162;20.538;2023-04-25T00:50:49;9.70;;;5.82;;
55150;SDS011;41041;43.162;20.538;2023-04-25T00:53:23;9.88;;;6.25;;
55150;SDS011;41041;43.162;20.538;2023-04-25T00:55:51;8.85;;;5.85;;
55150;SDS011;41041;43.162;20.538;2023-04-25T00:58:18;9.32;;;5.65;;
55150;SDS011;41041;43.162;20.538;2023-04-25T01:00:45;12.65;;;7.07;;
55150;SDS011;41041;43.162;20.538;2023-04-25T01:03:19;10.30;;;7.07;;
55150;SDS011;41041;43.162;20.538;2023-04-25T01:08:25;9.65;;;6.70;;
55150;SDS011;41041;43.162;20.538;2023-04-25T01:10:51;10.60;;;7.25;;
55150;SDS011;41041;43.162;20.538;2023-04-25T01:13:17;11.55;;;7.43;;
55150;SDS011;41041;43.162;20.538;2023-04-25T01:15:43;10.70;;;6.80;;
55150;SDS011;41041;43.162;20.538;2023-04-25T01:18:09;8.68;;;6.10;;
55150;SDS011;41041;43.162;20.538;2023-04-25T01:20:35;9.10;;;5.90;;
55150;SDS011;41041;43.162;20.538;2023-04-25T01:23:06;8.60;;;5.68;;
55150;SDS011;41041;43.162;20.538;2023-04-25T01:25:32;10.82;;;6.97;;
55150;SDS011;41041;43.162;20.538;2023-04-25T01:27:59;10.77;;;7.18;;
55150;SDS011;41041;43.162;20.538;2023-04-25T01:30:26;7.90;;;5.00;;
55150;SDS011;41041;43.162;20.538;2023-04-25T01:32:56;8.10;;;5.13;;
55150;SDS011;41041;43.162;20.538;2023-04-25T01:35:22;9.63;;;6.22;;
55150;SDS011;41041;43.162;20.538;2023-04-25T01:37:49;9.73;;;6.30;;
55150;SDS011;41041;43.162;20.538;2023-04-25T01:40:15;9.88;;;6.55;;
55150;SDS011;41041;43.162;20.538;2023-04-25T01:42:41;9.60;;;4.70;;
55150;SDS011;41041;43.162;20.538;2023-04-25T01:45:09;7.40;;;4.45;;
55150;SDS011;41041;43.162;20.538;2023-04-25T01:47:36;7.53;;;4.85;;
55150;SDS011;41041;43.162;20.538;2023-04-25T01:50:02;7.47;;;5.40;;
55150;SDS011;41041;43.162;20.538;2023-04-25T01:52:30;7.13;;;4.53;;
55150;SDS011;41041;43.162;20.538;2023-04-25T01:54:56;7.32;;;4.70;;
55150;SDS011;41041;43.162;20.538;2023-04-25T01:57:23;8.25;;;4.60;;
55150;SDS011;41041;43.162;20.538;2023-04-25T01:59:48;6.63;;;4.63;;
55150;SDS011;41041;43.162;20.538;2023-04-25T02:02:15;5.80;;;4.03;;
55150;SDS011;41041;43.162;20.538;2023-04-25T02:04:40;9.93;;;4.88;;
55150;SDS011;41041;43.162;20.538;2023-04-25T02:07:06;7.07;;;4.45;;
55150;SDS011;41041;43.162;20.538;2023-04-25T02:09:46;8.27;;;4.88;;
55150;SDS011;41041;43.162;20.538;2023-04-25T02:12:12;7.57;;;5.00;;
55150;SDS011;41041;43.162;20.538;2023-04-25T02:14:38;11.02;;;6.25;;
55150;SDS011;41041;43.162;20.538;2023-04-25T02:17:07;9.73;;;6.20;;
55150;SDS011;41041;43.162;20.538;2023-04-25T02:19:32;9.85;;;6.10;;
55150;SDS011;41041;43.162;20.538;2023-04-25T02:21:58;12.05;;;6.13;;
55150;SDS011;41041;43.162;20.538;2023-04-25T02:24:24;9.82;;;5.40;;
55150;SDS011;41041;43.162;20.538;2023-04-25T02:26:50;11.02;;;6.13;;
55150;SDS011;41041;43.162;20.538;2023-04-25T02:29:16;12.05;;;6.50;;
55150;SDS011;41041;43.162;20.538;2023-04-25T02:31:42;11.85;;;5.57;;
55150;SDS011;41041;43.162;20.538;2023-04-25T02:34:08;11.55;;;5.18;;
55150;SDS011;41041;43.162;20.538;2023-04-25T02:36:33;7.53;;;5.10;;
55150;SDS011;41041;43.162;20.538;2023-04-25T02:39:00;8.25;;;5.72;;
55150;SDS011;41041;43.162;20.538;2023-04-25T02:41:27;8.05;;;4.18;;
55150;SDS011;41041;43.162;20.538;2023-04-25T02:43:53;9.32;;;5.07;;
55150;SDS011;41041;43.162;20.538;2023-04-25T02:46:19;8.00;;;4.90;;
55150;SDS011;41041;43.162;20.538;2023-04-25T02:48:45;8.23;;;4.78;;
55150;SDS011;41041;43.162;20.538;2023-04-25T02:51:11;7.70;;;4.68;;
55150;SDS011;41041;43.162;20.538;2023-04-25T02:53:37;7.85;;;5.40;;
55150;SDS011;41041;43.162;20.538;2023-04-25T02:56:03;9.15;;;5.45;;
55150;SDS011;41041;43.162;20.538;2023-04-25T02:58:29;10.80;;;5.00;;
55150;SDS011;41041;43.162;20.538;2023-04-25T03:00:55;7.93;;;4.90;;
55150;SDS011;41041;43.162;20.538;2023-04-25T03:06:14;13.00;;;7.32;;
55150;SDS011;41041;43.162;20.538;2023-04-25T03:08:40;15.77;;;8.75;;
55150;SDS011;41041;43.162;20.538;2023-04-25T03:11:06;12.40;;;7.38;;
55150;SDS011;41041;43.162;20.538;2023-04-25T03:13:32;9.52;;;6.07;;
55150;SDS011;41041;43.162;20.538;2023-04-25T03:15:58;14.48;;;5.82;;
55150;SDS011;41041;43.162;20.538;2023-04-25T03:18:23;8.52;;;4.80;;
55150;SDS011;41041;43.162;20.538;2023-04-25T03:20:49;8.70;;;5.38;;
55150;SDS011;41041;43.162;20.538;2023-04-25T03:23:15;7.72;;;4.53;;
55150;SDS011;41041;43.162;20.538;2023-04-25T03:25:49;7.03;;;4.63;;
55150;SDS011;41041;43.162;20.538;2023-04-25T03:28:15;6.88;;;4.53;;
55150;SDS011;41041;43.162;20.538;2023-04-25T03:30:41;7.85;;;4.90;;
55150;SDS011;41041;43.162;20.538;2023-04-25T03:35:37;7.22;;;4.68;;
55150;SDS011;41041;43.162;20.538;2023-04-25T03:38:03;7.38;;;5.30;;
55150;SDS011;41041;43.162;20.538;2023-04-25T03:40:29;9.63;;;5.38;;
55150;SDS011;41041;43.162;20.538;2023-04-25T03:42:55;10.98;;;5.30;;
55150;SDS011;41041;43.162;20.538;2023-04-25T03:45:21;12.52;;;5.80;;
55150;SDS011;41041;43.162;20.538;2023-04-25T03:50:23;11.10;;;5.60;;
55150;SDS011;41041;43.162;20.538;2023-04-25T03:52:49;10.68;;;6.47;;
55150;SDS011;41041;43.162;20.538;2023-04-25T03:57:46;10.63;;;6.22;;
55150;SDS011;41041;43.162;20.538;2023-04-25T04:00:12;9.77;;;6.28;;
55150;SDS011;41041;43.162;20.538;2023-04-25T04:02:38;14.07;;;5.80;;
55150;SDS011;41041;43.162;20.538;2023-04-25T04:05:05;9.10;;;5.40;;
55150;SDS011;41041;43.162;20.538;2023-04-25T04:07:31;10.27;;;6.20;;
55150;SDS011;41041;43.162;20.538;2023-04-25T04:09:58;11.43;;;5.97;;
55150;SDS011;41041;43.162;20.538;2023-04-25T04:12:24;13.80;;;6.88;;
55150;SDS011;41041;43.162;20.538;2023-04-25T04:14:50;11.77;;;6.32;;
55150;SDS011;41041;43.162;20.538;2023-04-25T04:17:16;10.85;;;5.57;;
55150;SDS011;41041;43.162;20.538;2023-04-25T04:19:50;9.90;;;6.05;;
55150;SDS011;41041;43.162;20.538;2023-04-25T04:22:16;15.45;;;6.35;;
55150;SDS011;41041;43.162;20.538;2023-04-25T04:24:42;9.65;;;5.93;;
55150;SDS011;41041;43.162;20.538;2023-04-25T04:27:09;10.27;;;6.05;;
55150;SDS011;41041;43.162;20.538;2023-04-25T04:29:35;8.52;;;5.30;;
55150;SDS011;41041;43.162;20.538;2023-04-25T04:32:02;12.48;;;5.78;;
55150;SDS011;41041;43.162;20.538;2023-04-25T04:34:28;10.60;;;6.72;;
55150;SDS011;41041;43.162;20.538;2023-04-25T04:36:54;16.30;;;11.00;;
55150;SDS011;41041;43.162;20.538;2023-04-25T04:39:20;16.73;;;10.32;;
55150;SDS011;41041;43.162;20.538;2023-04-25T04:41:46;20.48;;;11.55;;
55150;SDS011;41041;43.162;20.538;2023-04-25T04:44:12;22.73;;;14.93;;
55150;SDS011;41041;43.162;20.538;2023-04-25T04:46:39;19.38;;;11.30;;
55150;SDS011;41041;43.162;20.538;2023-04-25T04:49:05;14.27;;;8.55;;
55150;SDS011;41041;43.162;20.538;2023-04-25T04:51:31;13.52;;;7.90;;
55150;SDS011;41041;43.162;20.538;2023-04-25T04:53:58;13.73;;;7.25;;
55150;SDS011;41041;43.162;20.538;2023-04-25T04:56:27;12.98;;;7.07;;
55150;SDS011;41041;43.162;20.538;2023-04-25T04:58:54;14.10;;;8.07;;
55150;SDS011;41041;43.162;20.538;2023-04-25T05:04:26;9.35;;;5.80;;
55150;SDS011;41041;43.162;20.538;2023-04-25T05:06:52;8.88;;;5.97;;
55150;SDS011;41041;43.162;20.538;2023-04-25T05:09:19;8.02;;;5.15;;
55150;SDS011;41041;43.162;20.538;2023-04-25T05:11:44;10.15;;;6.00;;
55150;SDS011;41041;43.162;20.538;2023-04-25T05:14:10;12.63;;;6.30;;
55150;SDS011;41041;43.162;20.538;2023-04-25T05:16:36;8.85;;;5.40;;
55150;SDS011;41041;43.162;20.538;2023-04-25T05:19:02;5.32;;;3.47;;
55150;SDS011;41041;43.162;20.538;2023-04-25T05:21:28;4.97;;;3.50;;
55150;SDS011;41041;43.162;20.538;2023-04-25T05:23:55;6.38;;;3.42;;
55150;SDS011;41041;43.162;20.538;2023-04-25T05:26:20;8.52;;;3.53;;
55150;SDS011;41041;43.162;20.538;2023-04-25T05:28:46;8.43;;;3.85;;
55150;SDS011;41041;43.162;20.538;2023-04-25T05:31:12;7.70;;;3.83;;
55150;SDS011;41041;43.162;20.538;2023-04-25T05:33:38;7.00;;;4.03;;
55150;SDS011;41041;43.162;20.538;2023-04-25T05:36:04;142.02;;;46.90;;
55150;SDS011;41041;43.162;20.538;2023-04-25T05:38:31;106.97;;;42.08;;
55150;SDS011;41041;43.162;20.538;2023-04-25T05:40:57;24.15;;;13.45;;
55150;SDS011;41041;43.162;20.538;2023-04-25T05:43:23;14.13;;;9.13;;
55150;SDS011;41041;43.162;20.538;2023-04-25T05:45:48;14.70;;;8.82;;
55150;SDS011;41041;43.162;20.538;2023-04-25T05:48:15;17.92;;;9.50;;
55150;SDS011;41041;43.162;20.538;2023-04-25T05:50:41;20.50;;;10.10;;
55150;SDS011;41041;43.162;20.538;2023-04-25T05:53:07;23.58;;;12.70;;
55150;SDS011;41041;43.162;20.538;2023-04-25T05:55:40;14.30;;;9.00;;
55150;SDS011;41041;43.162;20.538;2023-04-25T05:58:05;14.45;;;7.03;;
55150;SDS011;41041;43.162;20.538;2023-04-25T06:00:32;13.70;;;7.65;;
55150;SDS011;41041;43.162;20.538;2023-04-25T06:02:58;9.52;;;4.72;;
55150;SDS011;41041;43.162;20.538;2023-04-25T06:05:24;12.60;;;6.55;;
55150;SDS011;41041;43.162;20.538;2023-04-25T06:07:50;13.10;;;8.63;;
55150;SDS011;41041;43.162;20.538;2023-04-25T06:10:16;7.07;;;5.05;;
55150;SDS011;41041;43.162;20.538;2023-04-25T06:12:48;12.00;;;6.97;;
55150;SDS011;41041;43.162;20.538;2023-04-25T06:15:14;12.55;;;7.03;;
55150;SDS011;41041;43.162;20.538;2023-04-25T06:17:40;13.18;;;5.55;;
55150;SDS011;41041;43.162;20.538;2023-04-25T06:22:48;8.38;;;4.93;;
55150;SDS011;41041;43.162;20.538;2023-04-25T06:25:15;7.38;;;4.82;;
55150;SDS011;41041;43.162;20.538;2023-04-25T06:27:41;10.02;;;6.15;;
55150;SDS011;41041;43.162;20.538;2023-04-25T06:30:07;6.68;;;4.32;;
55150;SDS011;41041;43.162;20.538;2023-04-25T06:32:33;8.40;;;4.45;;
55150;SDS011;41041;43.162;20.538;2023-04-25T06:35:00;7.28;;;4.38;;
55150;SDS011;41041;43.162;20.538;2023-04-25T06:37:26;8.35;;;5.30;;
55150;SDS011;41041;43.162;20.538;2023-04-25T06:39:55;6.03;;;4.00;;
55150;SDS011;41041;43.162;20.538;2023-04-25T06:42:21;6.85;;;4.10;;
55150;SDS011;41041;43.162;20.538;2023-04-25T06:44:47;6.22;;;3.10;;
55150;SDS011;41041;43.162;20.538;2023-04-25T06:47:13;4.28;;;2.63;;
55150;SDS011;41041;43.162;20.538;2023-04-25T06:49:40;7.15;;;2.38;;
55150;SDS011;41041;43.162;20.538;2023-04-25T06:52:06;6.28;;;2.42;;
55150;SDS011;41041;43.162;20.538;2023-04-25T06:54:33;5.68;;;2.67;;
55150;SDS011;41041;43.162;20.538;2023-04-25T06:56:59;7.45;;;2.50;;
55150;SDS011;41041;43.162;20.538;2023-04-25T06:59:26;5.78;;;2.17;;
55150;SDS011;41041;43.162;20.538;2023-04-25T07:01:52;5.18;;;2.08;;
55150;SDS011;41041;43.162;20.538;2023-04-25T07:04:17;3.88;;;1.90;;
55150;SDS011;41041;43.162;20.538;2023-04-25T07:06:43;4.72;;;2.00;;
55150;SDS011;41041;43.162;20.538;2023-04-25T07:09:09;3.33;;;1.90;;
55150;SDS011;41041;43.162;20.538;2023-04-25T07:11:36;4.10;;;1.75;;
55150;SDS011;41041;43.162;20.538;2023-04-25T07:14:02;8.93;;;2.03;;
55150;SDS011;41041;43.162;20.538;2023-04-25T07:16:28;5.93;;;2.30;;
55150;SDS011;41041;43.162;20.538;2023-04-25T07:18:55;4.95;;;2.22;;
55150;SDS011;41041;43.162;20.538;2023-04-25T07:21:21;3.88;;;2.60;;
55150;SDS011;41041;43.162;20.538;2023-04-25T07:23:46;5.05;;;2.90;;
55150;SDS011;41041;43.162;20.538;2023-04-25T07:26:18;4.30;;;2.20;;
55150;SDS011;41041;43.162;20.538;2023-04-25T07:28:45;3.85;;;2.00;;
55150;SDS011;41041;43.162;20.538;2023-04-25T07:31:14;3.42;;;1.75;;
55150;SDS011;41041;43.162;20.538;2023-04-25T07:33:43;5.22;;;1.95;;
55150;SDS011;41041;43.162;20.538;2023-04-25T07:36:10;4.90;;;2.67;;
55150;SDS011;41041;43.162;20.538;2023-04-25T07:38:36;5.22;;;3.20;;
55150;SDS011;41041;43.162;20.538;2023-04-25T07:41:01;5.05;;;1.83;;
55150;SDS011;41041;43.162;20.538;2023-04-25T07:43:27;4.57;;;2.00;;
55150;SDS011;41041;43.162;20.538;2023-04-25T07:45:53;4.65;;;2.25;;
55150;SDS011;41041;43.162;20.538;2023-04-25T07:48:19;2.78;;;1.67;;
55150;SDS011;41041;43.162;20.538;2023-04-25T07:50:45;6.05;;;3.30;;
55150;SDS011;41041;43.162;20.538;2023-04-25T07:53:11;4.32;;;2.92;;
55150;SDS011;41041;43.162;20.538;2023-04-25T07:55:38;10.00;;;3.33;;
55150;SDS011;41041;43.162;20.538;2023-04-25T07:58:08;7.07;;;3.08;;
55150;SDS011;41041;43.162;20.538;2023-04-25T08:00:34;19.25;;;3.35;;
55150;SDS011;41041;43.162;20.538;2023-04-25T08:03:01;13.02;;;2.90;;
55150;SDS011;41041;43.162;20.538;2023-04-25T08:05:27;5.28;;;1.52;;
55150;SDS011;41041;43.162;20.538;2023-04-25T08:07:54;3.08;;;1.20;;
55150;SDS011;41041;43.162;20.538;2023-04-25T08:10:21;3.25;;;1.10;;
55150;SDS011;41041;43.162;20.538;2023-04-25T08:12:48;1.33;;;0.90;;
55150;SDS011;41041;43.162;20.538;2023-04-25T08:15:14;5.13;;;1.20;;
55150;SDS011;41041;43.162;20.538;2023-04-25T08:22:37;6.85;;;3.50;;
55150;SDS011;41041;43.162;20.538;2023-04-25T08:25:04;21.58;;;4.45;;
55150;SDS011;41041;43.162;20.538;2023-04-25T08:27:30;7.53;;;2.50;;
55150;SDS011;41041;43.162;20.538;2023-04-25T08:29:56;13.73;;;2.70;;
55150;SDS011;41041;43.162;20.538;2023-04-25T08:32:23;8.57;;;1.80;;
55150;SDS011;41041;43.162;20.538;2023-04-25T08:34:50;4.03;;;1.65;;
55150;SDS011;41041;43.162;20.538;2023-04-25T08:37:20;7.40;;;4.25;;
55150;SDS011;41041;43.162;20.538;2023-04-25T08:39:47;11.57;;;4.30;;
55150;SDS011;41041;43.162;20.538;2023-04-25T08:42:15;13.45;;;5.78;;
55150;SDS011;41041;43.162;20.538;2023-04-25T08:44:41;13.00;;;8.20;;
55150;SDS011;41041;43.162;20.538;2023-04-25T08:47:07;8.88;;;5.00;;
55150;SDS011;41041;43.162;20.538;2023-04-25T08:49:34;2.97;;;1.30;;
55150;SDS011;41041;43.162;20.538;2023-04-25T08:52:01;3.88;;;1.35;;
55150;SDS011;41041;43.162;20.538;2023-04-25T08:54:36;12.27;;;1.63;;
55150;SDS011;41041;43.162;20.538;2023-04-25T08:57:03;8.75;;;1.40;;
55150;SDS011;41041;43.162;20.538;2023-04-25T08:59:29;4.47;;;1.55;;
55150;SDS011;41041;43.162;20.538;2023-04-25T09:01:56;8.73;;;3.35;;
55150;SDS011;41041;43.162;20.538;2023-04-25T09:04:22;20.23;;;11.57;;
55150;SDS011;41041;43.162;20.538;2023-04-25T09:06:49;3.47;;;1.60;;
55150;SDS011;41041;43.162;20.538;2023-04-25T09:09:15;2.35;;;1.48;;
55150;SDS011;41041;43.162;20.538;2023-04-25T09:11:41;2.78;;;1.70;;
55150;SDS011;41041;43.162;20.538;2023-04-25T09:14:15;1.95;;;1.05;;
55150;SDS011;41041;43.162;20.538;2023-04-25T09:21:59;3.72;;;2.10;;
55150;SDS011;41041;43.162;20.538;2023-04-25T09:24:43;2.40;;;1.40;;
55150;SDS011;41041;43.162;20.538;2023-04-25T09:27:12;2.03;;;0.70;;
55150;SDS011;41041;43.162;20.538;2023-04-25T09:29:39;2.42;;;1.10;;
55150;SDS011;41041;43.162;20.538;2023-04-25T09:32:19;2.10;;;1.10;;
55150;SDS011;41041;43.162;20.538;2023-04-25T09:34:49;5.70;;;1.30;;
55150;SDS011;41041;43.162;20.538;2023-04-25T09:37:19;3.40;;;1.20;;
55150;SDS011;41041;43.162;20.538;2023-04-25T09:39:46;10.50;;;1.45;;
55150;SDS011;41041;43.162;20.538;2023-04-25T09:42:13;2.70;;;1.73;;
55150;SDS011;41041;43.162;20.538;2023-04-25T09:44:46;14.48;;;1.40;;
55150;SDS011;41041;43.162;20.538;2023-04-25T09:47:14;5.00;;;1.20;;
55150;SDS011;41041;43.162;20.538;2023-04-25T09:49:42;5.80;;;1.50;;
55150;SDS011;41041;43.162;20.538;2023-04-25T09:52:09;5.13;;;1.20;;
55150;SDS011;41041;43.162;20.538;2023-04-25T09:54:38;1.98;;;1.02;;
55150;SDS011;41041;43.162;20.538;2023-04-25T09:57:09;4.20;;;1.27;;
55150;SDS011;41041;43.162;20.538;2023-04-25T09:59:38;1.70;;;1.10;;
55150;SDS011;41041;43.162;20.538;2023-04-25T10:02:06;4.05;;;1.58;;
55150;SDS011;41041;43.162;20.538;2023-04-25T10:04:34;4.70;;;1.38;;
55150;SDS011;41041;43.162;20.538;2023-04-25T10:07:02;5.45;;;1.20;;
55150;SDS011;41041;43.162;20.538;2023-04-25T10:09:29;6.97;;;1.52;;
55150;SDS011;41041;43.162;20.538;2023-04-25T10:11:58;5.88;;;1.25;;
55150;SDS011;41041;43.162;20.538;2023-04-25T10:14:25;3.63;;;1.10;;
55150;SDS011;41041;43.162;20.538;2023-04-25T10:16:58;3.55;;;0.90;;
55150;SDS011;41041;43.162;20.538;2023-04-25T10:19:25;2.35;;;0.82;;
55150;SDS011;41041;43.162;20.538;2023-04-25T10:21:52;2.72;;;1.00;;
55150;SDS011;41041;43.162;20.538;2023-04-25T10:24:20;2.55;;;0.80;;
55150;SDS011;41041;43.162;20.538;2023-04-25T10:26:46;3.72;;;1.00;;
55150;SDS011;41041;43.162;20.538;2023-04-25T10:29:14;3.45;;;0.85;;
55150;SDS011;41041;43.162;20.538;2023-04-25T10:31:47;1.27;;;0.85;;
55150;SDS011;41041;43.162;20.538;2023-04-25T10:34:13;5.20;;;0.90;;
55150;SDS011;41041;43.162;20.538;2023-04-25T10:36:41;1.70;;;0.90;;
55150;SDS011;41041;43.162;20.538;2023-04-25T10:39:07;1.00;;;0.80;;
55150;SDS011;41041;43.162;20.538;2023-04-25T10:41:47;3.13;;;1.00;;
55150;SDS011;41041;43.162;20.538;2023-04-25T10:44:13;1.73;;;1.10;;
55150;SDS011;41041;43.162;20.538;2023-04-25T10:46:40;1.98;;;0.95;;
55150;SDS011;41041;43.162;20.538;2023-04-25T10:51:58;10.45;;;1.60;;
55150;SDS011;41041;43.162;20.538;2023-04-25T10:54:40;3.08;;;1.50;;
55150;SDS011;41041;43.162;20.538;2023-04-25T10:57:06;2.25;;;1.63;;
55150;SDS011;41041;43.162;20.538;2023-04-25T10:59:32;4.40;;;1.58;;
55150;SDS011;41041;43.162;20.538;2023-04-25T11:01:58;5.53;;;2.00;;
55150;SDS011;41041;43.162;20.538;2023-04-25T11:04:25;2.75;;;2.20;;
55150;SDS011;41041;43.162;20.538;2023-04-25T11:09:36;6.30;;;2.72;;
55150;SDS011;41041;43.162;20.538;2023-04-25T11:12:04;2.65;;;2.00;;
55150;SDS011;41041;43.162;20.538;2023-04-25T11:14:30;4.50;;;2.22;;
55150;SDS011;41041;43.162;20.538;2023-04-25T11:16:57;2.92;;;2.28;;
55150;SDS011;41041;43.162;20.538;2023-04-25T11:19:23;4.95;;;2.20;;
55150;SDS011;41041;43.162;20.538;2023-04-25T11:21:50;5.45;;;2.80;;
55150;SDS011;41041;43.162;20.538;2023-04-25T11:24:16;3.15;;;2.30;;
55150;SDS011;41041;43.162;20.538;2023-04-25T11:26:43;2.67;;;2.20;;
55150;SDS011;41041;43.162;20.538;2023-04-25T11:29:09;6.53;;;2.65;;
55150;SDS011;41041;43.162;20.538;2023-04-25T11:31:35;6.18;;;2.80;;
55150;SDS011;41041;43.162;20.538;2023-04-25T11:34:01;4.50;;;3.20;;
55150;SDS011;41041;43.162;20.538;2023-04-25T11:36:27;6.05;;;3.83;;
55150;SDS011;41041;43.162;20.538;2023-04-25T11:38:54;4.55;;;3.65;;
55150;SDS011;41041;43.162;20.538;2023-04-25T11:41:20;6.05;;;4.35;;
55150;SDS011;41041;43.162;20.538;2023-04-25T11:43:47;4.35;;;3.33;;
55150;SDS011;41041;43.162;20.538;2023-04-25T11:46:14;9.52;;;3.53;;
55150;SDS011;41041;43.162;20.538;2023-04-25T11:48:40;5.25;;;4.15;;
55150;SDS011;41041;43.162;20.538;2023-04-25T11:51:06;3.83;;;3.22;;
55150;SDS011;41041;43.162;20.538;2023-04-25T11:53:33;8.80;;;3.40;;
55150;SDS011;41041;43.162;20.538;2023-04-25T11:55:59;5.72;;;3.40;;
55150;SDS011;41041;43.162;20.538;2023-04-25T11:58:27;3.42;;;2.97;;
55150;SDS011;41041;43.162;20.538;2023-04-25T12:01:26;4.10;;;3.60;;
55150;SDS011;41041;43.162;20.538;2023-04-25T12:03:53;5.38;;;3.67;;
55150;SDS011;41041;43.162;20.538;2023-04-25T15:13:51;3.50;;;2.30;;
55150;SDS011;41041;43.162;20.538;2023-04-25T15:25:12;3.50;;;2.50;;
55150;SDS011;41041;43.162;20.538;2023-04-25T15:27:39;7.30;;;4.55;;
55150;SDS011;41041;43.162;20.538;2023-04-25T15:30:10;5.28;;;3.00;;
55150;SDS011;41041;43.162;20.538;2023-04-25T15:35:41;2.45;;;1.70;;
55150;SDS011;41041;43.162;20.538;2023-04-25T15:38:07;4.13;;;2.10;;
55150;SDS011;41041;43.162;20.538;2023-04-25T15:40:36;4.07;;;2.22;;
55150;SDS011;41041;43.162;20.538;2023-04-25T15:43:06;2.60;;;2.20;;
55150;SDS011;41041;43.162;20.538;2023-04-25T15:45:35;3.67;;;2.70;;
55150;SDS011;41041;43.162;20.538;2023-04-25T15:48:04;4.40;;;3.00;;
55150;SDS011;41041;43.162;20.538;2023-04-25T15:50:31;8.20;;;3.20;;
55150;SDS011;41041;43.162;20.538;2023-04-25T15:56:02;4.60;;;2.75;;
55150;SDS011;41041;43.162;20.538;2023-04-25T15:59:06;2.83;;;2.20;;
55150;SDS011;41041;43.162;20.538;2023-04-25T21:45:14;7.03;;;4.93;;
55150;SDS011;41041;43.162;20.538;2023-04-25T21:47:41;7.47;;;4.65;;
55150;SDS011;41041;43.162;20.538;2023-04-25T21:50:06;13.43;;;8.43;;
55150;SDS011;41041;43.162;20.538;2023-04-25T21:52:34;11.88;;;7.97;;
55150;SDS011;41041;43.162;20.538;2023-04-25T21:55:00;11.70;;;7.55;;
55150;SDS011;41041;43.162;20.538;2023-04-25T21:57:26;16.25;;;9.82;;
55150;SDS011;41041;43.162;20.538;2023-04-25T21:59:52;10.15;;;6.88;;
55150;SDS011;41041;43.162;20.538;2023-04-25T22:02:24;9.85;;;5.85;;
55150;SDS011;41041;43.162;20.538;2023-04-25T22:04:51;6.80;;;4.05;;
55150;SDS011;41041;43.162;20.538;2023-04-25T22:07:17;6.13;;;3.15;;
55150;SDS011;41041;43.162;20.538;2023-04-25T22:09:43;3.78;;;2.72;;
55150;SDS011;41041;43.162;20.538;2023-04-25T22:12:09;3.28;;;2.42;;
55150;SDS011;41041;43.162;20.538;2023-04-25T22:14:35;3.17;;;1.95;;
55150;SDS011;41041;43.162;20.538;2023-04-25T22:17:05;3.42;;;2.10;;
55150;SDS011;41041;43.162;20.538;2023-04-25T22:19:31;3.20;;;2.25;;
55150;SDS011;41041;43.162;20.538;2023-04-25T22:21:57;3.30;;;2.50;;
55150;SDS011;41041;43.162;20.538;2023-04-25T22:24:23;4.32;;;3.03;;
55150;SDS011;41041;43.162;20.538;2023-04-25T22:26:53;4.60;;;3.53;;
55150;SDS011;41041;43.162;20.538;2023-04-25T22:29:20;8.50;;;3.72;;
55150;SDS011;41041;43.162;20.538;2023-04-25T22:31:46;8.63;;;4.47;;
55150;SDS011;41041;43.162;20.538;2023-04-25T22:34:11;7.60;;;4.00;;
55150;SDS011;41041;43.162;20.538;2023-04-25T22:36:38;5.95;;;3.83;;
55150;SDS011;41041;43.162;20.538;2023-04-25T22:39:04;6.15;;;4.13;;
55150;SDS011;41041;43.162;20.538;2023-04-25T22:41:30;7.00;;;4.22;;
55150;SDS011;41041;43.162;20.538;2023-04-25T22:43:56;6.18;;;4.03;;
55150;SDS011;41041;43.162;20.538;2023-04-25T22:46:22;5.93;;;4.32;;
55150;SDS011;41041;43.162;20.538;2023-04-25T22:48:48;8.27;;;4.28;;
55150;SDS011;41041;43.162;20.538;2023-04-25T22:51:14;10.55;;;6.72;;
55150;SDS011;41041;43.162;20.538;2023-04-25T22:53:40;9.80;;;7.05;;
55150;SDS011;41041;43.162;20.538;2023-04-25T22:56:06;8.07;;;4.93;;
55150;SDS011;41041;43.162;20.538;2023-04-25T22:58:34;7.97;;;4.30;;
55150;SDS011;41041;43.162;20.538;2023-04-25T23:01:01;6.20;;;4.38;;
55150;SDS011;41041;43.162;20.538;2023-04-25T23:03:27;9.93;;;6.03;;
55150;SDS011;41041;43.162;20.538;2023-04-25T23:05:53;8.80;;;5.50;;
55150;SDS011;41041;43.162;20.538;2023-04-25T23:08:19;9.52;;;5.20;;
55150;SDS011;41041;43.162;20.538;2023-04-25T23:10:45;8.52;;;5.47;;
55150;SDS011;41041;43.162;20.538;2023-04-25T23:13:11;9.52;;;4.93;;
55150;SDS011;41041;43.162;20.538;2023-04-25T23:15:37;9.80;;;5.70;;
55150;SDS011;41041;43.162;20.538;2023-04-25T23:18:04;10.98;;;5.40;;
55150;SDS011;41041;43.162;20.538;2023-04-25T23:20:30;10.18;;;6.05;;
55150;SDS011;41041;43.162;20.538;2023-04-25T23:22:56;14.10;;;8.77;;
55150;SDS011;41041;43.162;20.538;2023-04-25T23:25:23;14.77;;;8.23;;
55150;SDS011;41041;43.162;20.538;2023-04-25T23:27:49;12.50;;;7.90;;
55150;SDS011;41041;43.162;20.538;2023-04-25T23:30:15;11.77;;;7.05;;
55150;SDS011;41041;43.162;20.538;2023-04-25T23:32:41;11.10;;;7.15;;
55150;SDS011;41041;43.162;20.538;2023-04-25T23:35:07;13.35;;;8.63;;
55150;SDS011;41041;43.162;20.538;2023-04-25T23:37:34;12.40;;;8.68;;
55150;SDS011;41041;43.162;20.538;2023-04-25T23:40:10;14.65;;;8.60;;
55150;SDS011;41041;43.162;20.538;2023-04-25T23:42:36;10.25;;;7.88;;
55150;SDS011;41041;43.162;20.538;2023-04-25T23:45:03;11.73;;;7.82;;
55150;SDS011;41041;43.162;20.538;2023-04-25T23:47:30;21.75;;;13.25;;
55150;SDS011;41041;43.162;20.538;2023-04-25T23:49:56;16.83;;;11.52;;
55150;SDS011;41041;43.162;20.538;2023-04-25T23:52:22;29.15;;;17.95;;
55150;SDS011;41041;43.162;20.538;2023-04-25T23:54:48;26.15;;;15.55;;
55150;SDS011;41041;43.162;20.538;2023-04-25T23:57:14;19.35;;;12.60;;
55150;SDS011;41041;43.162;20.538;2023-04-25T23:59:44;18.50;;;12.00;;
